Time;durP1;ratioP1;P1;durP2;ratioP2;P2;SDS_P1;SDS_P2;PMS_P1;PMS_P2;Temp;Humidity;BMP_temperature;BMP_pressure;BME280_temperature;BME280_humidity;BME280_pressure;Samples;Min_cycle;Max_cycle;Signal;HPM_P1;HPM_P2
2022/01/16 00:02:10;;;;;;;68.13;19.03;;;1.40;60.90;;;;;;5056581;28;20692;-59
2022/01/16 00:04:34;;;;;;;116.03;25.20;;;1.50;99.90;;;;;;5063398;28;20226;-59
2022/01/16 00:07:04;;;;;;;151.03;20.80;;;1.50;88.40;;;;;;5058987;28;20228;-59
2022/01/16 00:09:32;;;;;;;91.23;16.50;;;1.40;85.10;;;;;;5077052;28;20606;-59
2022/01/16 00:12:00;;;;;;;82.23;25.97;;;1.40;51.60;;;;;;5080143;28;20194;-59
2022/01/16 00:14:31;;;;;;;67.43;24.43;;;1.50;60.90;;;;;;5047453;28;20297;-60
2022/01/16 00:17:01;;;;;;;60.17;21.13;;;1.60;99.90;;;;;;5068985;28;20211;-59
2022/01/16 00:19:28;;;;;;;45.47;20.90;;;1.70;99.90;;;;;;5066931;28;20747;-59
2022/01/16 00:21:58;;;;;;;95.77;19.97;;;1.80;99.90;;;;;;5044595;28;20923;-58
2022/01/16 00:24:25;;;;;;;76.00;19.80;;;1.80;99.90;;;;;;5077358;28;20615;-59
2022/01/16 00:26:54;;;;;;;97.87;19.70;;;1.80;99.90;;;;;;5074910;28;20195;-59
2022/01/16 00:29:21;;;;;;;138.80;18.50;;;1.80;99.90;;;;;;5053512;28;20738;-59
2022/01/16 00:31:50;;;;;;;96.50;16.27;;;1.40;99.90;;;;;;5062918;28;20719;-59
2022/01/16 00:34:17;;;;;;;170.30;29.33;;;1.20;99.90;;;;;;5059146;28;20308;-59
2022/01/16 00:36:45;;;;;;;99.27;17.83;;;1.30;99.90;;;;;;5075604;28;20256;-59
2022/01/16 00:39:12;;;;;;;133.50;19.57;;;1.20;99.90;;;;;;5057344;28;20277;-59
2022/01/16 00:41:40;;;;;;;92.50;17.50;;;1.10;99.90;;;;;;5063718;28;20289;-59
2022/01/16 00:44:07;;;;;;;129.00;17.53;;;1.10;1.00;;;;;;5073663;28;20244;-59
2022/01/16 00:46:35;;;;;;;117.87;20.33;;;1.10;1.00;;;;;;5057842;28;20294;-59
2022/01/16 00:49:02;;;;;;;98.40;20.53;;;1.00;99.90;;;;;;5060517;28;20194;-59
2022/01/16 00:51:29;;;;;;;70.30;15.47;;;1.00;1.00;;;;;;5075428;28;20255;-59
2022/01/16 00:53:56;;;;;;;113.40;18.10;;;1.00;1.00;;;;;;5062794;28;20198;-59
2022/01/16 00:56:26;;;;;;;83.17;17.37;;;1.00;1.00;;;;;;5063421;28;20220;-59
2022/01/16 00:58:53;;;;;;;88.97;20.03;;;0.90;1.00;;;;;;5079080;28;20195;-59
2022/01/16 01:01:20;;;;;;;68.20;15.80;;;0.90;1.00;;;;;;5077895;28;20210;-59
2022/01/16 01:03:47;;;;;;;138.27;20.60;;;0.80;1.00;;;;;;5078375;28;20228;-59
2022/01/16 01:06:15;;;;;;;85.03;15.93;;;0.80;1.00;;;;;;5047145;28;20251;-59
2022/01/16 01:08:42;;;;;;;90.57;16.30;;;0.90;32.00;;;;;;5066583;28;20257;-59
2022/01/16 01:11:13;;;;;;;92.73;16.60;;;0.90;1.00;;;;;;5062371;28;20296;-59
2022/01/16 01:16:38;;;;;;;94.27;21.30;;;0.90;1.00;;;;;;5061301;28;20334;-59
2022/01/16 01:19:05;;;;;;;72.40;17.87;;;0.90;1.00;;;;;;5074590;28;20206;-59
2022/01/16 01:21:33;;;;;;;72.33;15.50;;;0.90;1.00;;;;;;5056325;28;20667;-59
2022/01/16 01:24:01;;;;;;;79.57;19.90;;;0.90;1.00;;;;;;5071344;28;20268;-59
2022/01/16 01:26:35;;;;;;;63.10;15.83;;;0.90;1.00;;;;;;5078351;28;20771;-59
2022/01/16 01:29:02;;;;;;;60.27;16.63;;;1.00;1.00;;;;;;5047904;28;20281;-59
2022/01/16 01:31:32;;;;;;;70.90;18.30;;;1.00;1.00;;;;;;5058441;28;20231;-59
2022/01/16 01:33:59;;;;;;;95.60;21.90;;;1.10;8.50;;;;;;5057028;28;20231;-58
2022/01/16 01:36:26;;;;;;;79.43;20.53;;;1.30;91.40;;;;;;5053957;28;20223;-59
2022/01/16 01:38:53;;;;;;;90.93;20.80;;;1.30;99.90;;;;;;5052607;28;20252;-58
2022/01/16 01:41:20;;;;;;;83.23;20.20;;;1.30;50.10;;;;;;5071132;28;20646;-59
2022/01/16 01:52:04;;;;;;;107.87;22.50;;;1.60;99.90;;;;;;5041821;28;20230;-59
2022/01/16 01:54:31;;;;;;;93.03;22.03;;;1.60;99.90;;;;;;5049389;28;20195;-59
2022/01/16 01:56:59;;;;;;;96.50;21.37;;;1.70;99.90;;;;;;5058031;28;21149;-60
2022/01/16 01:59:29;;;;;;;121.00;22.73;;;1.70;99.90;;;;;;5059154;28;20199;-59
2022/01/16 02:01:55;;;;;;;125.83;22.67;;;1.70;99.90;;;;;;5052979;28;20252;-60
2022/01/16 02:04:23;;;;;;;120.80;28.40;;;1.70;99.90;;;;;;5059898;28;20654;-58
2022/01/16 02:06:49;;;;;;;109.47;29.03;;;1.70;99.90;;;;;;5056233;28;20596;-60
2022/01/16 02:09:18;;;;;;;109.30;26.80;;;1.70;99.90;;;;;;5057393;28;20215;-59
2022/01/16 02:11:46;;;;;;;110.23;32.33;;;1.80;99.90;;;;;;5054425;28;20764;-59
2022/01/16 02:38:48;;;;;;;79.20;30.97;;;2.30;49.10;;;;;;5074888;28;20289;-59
2022/01/16 02:41:16;;;;;;;87.37;33.17;;;2.30;21.90;;;;;;5044759;28;20258;-58
2022/01/16 02:43:50;;;;;;;89.77;33.03;;;2.30;1.00;;;;;;5083934;28;20255;-59
2022/01/16 02:48:49;;;;;;;89.30;35.30;;;2.40;1.00;;;;;;5062268;28;20762;-58
2022/01/16 02:51:21;;;;;;;98.67;34.43;;;2.50;1.00;;;;;;5063164;28;20662;-58
2022/01/16 02:53:49;;;;;;;103.90;39.83;;;2.50;1.00;;;;;;5080022;28;20905;-58
2022/01/16 02:56:18;;;;;;;108.27;39.00;;;2.60;1.00;;;;;;5060266;28;20688;-59
2022/01/16 02:58:46;;;;;;;108.90;45.00;;;2.60;1.00;;;;;;5051263;28;20230;-59
2022/01/16 03:01:14;;;;;;;115.67;44.40;;;2.70;1.00;;;;;;5080618;28;20273;-59
2022/01/16 03:03:41;;;;;;;123.80;44.17;;;2.70;99.90;;;;;;5063073;28;20908;-58
2022/01/16 03:06:08;;;;;;;102.97;39.20;;;2.70;99.90;;;;;;5065650;28;20218;-58
2022/01/16 03:08:35;;;;;;;91.20;40.87;;;2.70;1.00;;;;;;5084874;28;20773;-59
2022/01/16 03:13:33;;;;;;;84.67;36.77;;;2.70;99.90;;;;;;5084355;28;20226;-59
2022/01/16 03:16:00;;;;;;;83.37;37.30;;;2.60;1.00;;;;;;5056301;28;20664;-59
2022/01/16 03:24:03;;;;;;;77.53;35.83;;;2.60;1.00;;;;;;5064415;28;20186;-59
2022/01/16 03:26:30;;;;;;;73.97;33.97;;;2.70;99.90;;;;;;5046517;28;20229;-59
2022/01/16 03:28:57;;;;;;;69.33;35.33;;;2.70;99.90;;;;;;5059325;28;20613;-59
2022/01/16 03:31:24;;;;;;;75.77;37.27;;;2.70;1.00;;;;;;5061409;28;20689;-59
2022/01/16 03:33:53;;;;;;;72.87;35.47;;;2.70;1.00;;;;;;5081001;28;20265;-59
2022/01/16 03:36:20;;;;;;;74.53;35.30;;;2.70;99.90;;;;;;5076680;28;20191;-59
2022/01/16 03:38:52;;;;;;;75.33;35.53;;;2.70;1.00;;;;;;5078124;28;20205;-58
2022/01/16 03:41:22;;;;;;;73.67;34.97;;;2.70;1.00;;;;;;5079611;28;20190;-58
2022/01/16 03:43:49;;;;;;;68.90;35.03;;;2.70;1.00;;;;;;5062066;28;20198;-58
2022/01/16 03:46:16;;;;;;;59.97;32.83;;;2.70;1.00;;;;;;5064859;28;20198;-58
2022/01/16 03:48:43;;;;;;;62.43;31.37;;;2.70;1.00;;;;;;5066672;28;20562;-58
2022/01/16 03:51:10;;;;;;;55.73;31.47;;;2.70;1.00;;;;;;5060803;28;20281;-58
2022/01/16 03:53:39;;;;;;;55.13;30.33;;;2.70;1.00;;;;;;5076968;28;20742;-58
2022/01/16 03:56:06;;;;;;;52.47;28.63;;;2.70;1.00;;;;;;5064692;28;20673;-59
2022/01/16 03:58:33;;;;;;;42.70;25.43;;;2.70;1.00;;;;;;5081606;28;20256;-58
2022/01/16 04:01:02;;;;;;;48.43;26.57;;;2.70;99.90;;;;;;5064931;28;20230;-59
2022/01/16 04:03:29;;;;;;;54.67;27.90;;;2.70;99.90;;;;;;5058919;28;20574;-58
2022/01/16 04:05:56;;;;;;;45.80;25.07;;;2.60;99.90;;;;;;5080776;28;20236;-59
2022/01/16 04:08:25;;;;;;;45.23;24.90;;;2.70;99.90;;;;;;5062226;28;21106;-59
2022/01/16 04:10:54;;;;;;;42.73;25.13;;;2.60;99.90;;;;;;5068561;28;20212;-59
2022/01/16 04:13:21;;;;;;;49.93;25.67;;;2.60;99.90;;;;;;5083288;28;20277;-59
2022/01/16 04:15:49;;;;;;;49.10;25.53;;;2.60;99.90;;;;;;5083720;28;20256;-58
2022/01/16 04:18:16;;;;;;;51.10;26.00;;;2.60;3.10;;;;;;5079646;28;20256;-59
2022/01/16 04:20:45;;;;;;;50.53;26.20;;;2.60;1.00;;;;;;5056457;28;20219;-59
2022/01/16 04:23:12;;;;;;;41.50;25.70;;;2.60;1.00;;;;;;5058803;28;20281;-59
2022/01/16 04:25:39;;;;;;;41.70;24.77;;;2.60;1.00;;;;;;5056880;28;20653;-58
2022/01/16 04:28:06;;;;;;;46.00;27.20;;;2.60;1.00;;;;;;5073815;28;20744;-58
2022/01/16 04:30:33;;;;;;;43.37;25.30;;;2.60;1.00;;;;;;5078701;28;20515;-58
2022/01/16 04:33:00;;;;;;;46.23;26.77;;;2.70;1.00;;;;;;5066716;28;20190;-58
2022/01/16 04:35:28;;;;;;;41.13;25.30;;;2.70;1.00;;;;;;5087213;28;20186;-59
2022/01/16 04:37:55;;;;;;;42.60;26.03;;;2.70;1.00;;;;;;5084627;28;20222;-58
2022/01/16 04:40:40;;;;;;;42.10;26.30;;;2.70;1.00;;;;;;5066527;28;20199;-59
2022/01/16 04:45:58;;;;;;;42.23;26.17;;;2.70;1.00;;;;;;5084592;28;20664;-59
2022/01/16 04:48:26;;;;;;;39.40;24.60;;;2.70;1.00;;;;;;5070481;28;20198;-58
2022/01/16 04:50:57;;;;;;;37.60;25.07;;;2.60;99.90;;;;;;5078176;28;20240;-58
2022/01/16 04:53:24;;;;;;;39.87;23.97;;;2.60;99.90;;;;;;5085905;28;20282;-59
2022/01/16 04:55:52;;;;;;;44.30;24.77;;;2.60;99.90;;;;;;5067904;28;21002;-58
2022/01/16 04:58:21;;;;;;;36.90;22.23;;;2.70;99.90;;;;;;5078689;28;20954;-59
2022/01/16 05:00:54;;;;;;;36.57;23.80;;;2.60;99.90;;;;;;5066883;28;20239;-59
2022/01/16 05:03:25;;;;;;;36.67;24.97;;;2.70;1.00;;;;;;5051424;28;20216;-60
2022/01/16 05:05:55;;;;;;;37.70;24.23;;;2.70;1.00;;;;;;5083407;28;20197;-59
2022/01/16 05:08:22;;;;;;;40.37;27.00;;;2.70;1.00;;;;;;5086221;28;20308;-59
2022/01/16 05:10:53;;;;;;;39.10;26.13;;;2.70;1.00;;;;;;5064596;28;20194;-59
2022/01/16 05:13:31;;;;;;;33.63;21.13;;;2.70;1.00;;;;;;5080386;28;20182;-59
2022/01/16 05:18:50;;;;;;;40.43;23.30;;;2.70;99.90;;;;;;5067715;28;20310;-59
2022/01/16 05:21:18;;;;;;;38.03;23.17;;;2.80;99.90;;;;;;5049245;28;20218;-59
2022/01/16 05:23:45;;;;;;;36.63;23.17;;;2.80;99.90;;;;;;5048623;28;20232;-59
2022/01/16 05:26:17;;;;;;;40.27;23.53;;;2.70;99.90;;;;;;5084590;28;20301;-58
2022/01/16 05:28:45;;;;;;;38.40;24.17;;;2.80;99.90;;;;;;5066268;28;20198;-59
2022/01/16 05:31:14;;;;;;;38.17;24.33;;;2.90;99.90;;;;;;5083078;28;20210;-59
2022/01/16 05:33:42;;;;;;;40.57;24.50;;;2.80;99.90;;;;;;5046605;28;20238;-59
2022/01/16 05:36:09;;;;;;;39.40;23.73;;;2.90;99.90;;;;;;5061077;28;20285;-59
2022/01/16 05:38:38;;;;;;;38.43;23.13;;;2.80;99.90;;;;;;5068580;28;20218;-59
2022/01/16 05:41:05;;;;;;;39.23;23.47;;;2.80;99.90;;;;;;5063019;28;20274;-59
2022/01/16 05:43:34;;;;;;;43.57;23.73;;;2.90;99.90;;;;;;5078705;28;20190;-59
2022/01/16 05:46:01;;;;;;;39.67;23.30;;;2.90;99.90;;;;;;5084141;28;20217;-59
2022/01/16 05:48:31;;;;;;;41.17;24.77;;;2.80;99.90;;;;;;5070741;28;21030;-59
2022/01/16 05:50:58;;;;;;;46.67;24.80;;;2.90;99.90;;;;;;5060223;28;22125;-59
2022/01/16 05:53:25;;;;;;;40.73;24.07;;;2.90;99.90;;;;;;5084794;28;20223;-59
2022/01/16 05:55:52;;;;;;;43.67;25.80;;;2.90;99.90;;;;;;5077979;28;20626;-59
2022/01/16 05:58:19;;;;;;;43.63;26.83;;;2.90;99.90;;;;;;5071269;28;20697;-59
2022/01/16 06:00:47;;;;;;;42.17;25.17;;;2.90;99.90;;;;;;5050375;28;20251;-59
2022/01/16 06:03:15;;;;;;;43.33;25.63;;;3.00;99.90;;;;;;5070119;28;20244;-59
2022/01/16 06:05:43;;;;;;;45.93;27.70;;;2.90;99.90;;;;;;5052076;28;20262;-59
2022/01/16 06:08:15;;;;;;;45.53;28.13;;;2.90;99.90;;;;;;5088202;28;20186;-59
2022/01/16 06:10:42;;;;;;;47.00;26.80;;;3.00;99.90;;;;;;5050574;28;20221;-59
2022/01/16 06:13:12;;;;;;;47.10;27.60;;;2.90;99.90;;;;;;5065609;28;20297;-59
2022/01/16 06:15:40;;;;;;;45.63;28.13;;;3.00;99.90;;;;;;5083918;28;20234;-59
2022/01/16 06:18:08;;;;;;;45.53;26.97;;;3.00;99.90;;;;;;5067452;28;20213;-58
2022/01/16 06:20:40;;;;;;;45.13;27.37;;;2.90;99.90;;;;;;5075676;28;20794;-59
2022/01/16 06:23:08;;;;;;;51.53;27.43;;;3.00;99.90;;;;;;5074823;28;20285;-59
2022/01/16 06:25:35;;;;;;;46.83;27.77;;;2.90;99.90;;;;;;5075751;28;20956;-59
2022/01/16 06:28:03;;;;;;;48.77;28.60;;;2.90;99.90;;;;;;5084228;28;20219;-59
2022/01/16 06:30:35;;;;;;;45.07;26.63;;;2.90;99.90;;;;;;5065853;28;20251;-58
2022/01/16 06:33:05;;;;;;;52.00;28.57;;;2.90;99.90;;;;;;5049336;28;20369;-58
2022/01/16 06:35:32;;;;;;;46.90;27.77;;;2.90;99.90;;;;;;5066292;28;20194;-58
2022/01/16 06:38:01;;;;;;;52.37;28.37;;;2.90;99.90;;;;;;5066374;28;20206;-59
2022/01/16 06:40:28;;;;;;;51.83;28.50;;;3.00;99.90;;;;;;5085638;28;20221;-58
2022/01/16 06:42:58;;;;;;;48.30;27.57;;;3.00;99.90;;;;;;5048839;28;20713;-59
2022/01/16 06:45:25;;;;;;;51.33;28.63;;;3.00;99.90;;;;;;5045408;28;20211;-59
2022/01/16 06:47:52;;;;;;;50.43;28.80;;;3.00;99.90;;;;;;5066670;28;20198;-59
2022/01/16 06:50:19;;;;;;;53.73;28.43;;;3.00;99.90;;;;;;5063622;28;20548;-59
2022/01/16 06:52:46;;;;;;;59.67;30.97;;;3.00;99.90;;;;;;5063662;28;20285;-59
2022/01/16 06:55:16;;;;;;;57.60;29.70;;;3.10;99.90;;;;;;5070502;28;20202;-59
2022/01/16 06:57:43;;;;;;;58.53;31.13;;;3.10;99.90;;;;;;5062135;28;20214;-59
2022/01/16 07:00:10;;;;;;;56.30;29.67;;;3.10;99.90;;;;;;5083312;28;20227;-59
2022/01/16 07:02:39;;;;;;;57.27;32.13;;;3.10;99.90;;;;;;5061748;28;20203;-59
2022/01/16 07:05:07;;;;;;;68.17;37.77;;;3.10;99.90;;;;;;5061507;28;20209;-59
2022/01/16 07:07:34;;;;;;;73.53;39.87;;;3.10;99.90;;;;;;5082157;28;20194;-59
2022/01/16 07:10:01;;;;;;;57.60;31.17;;;3.10;99.90;;;;;;5063833;28;21058;-59
2022/01/16 07:12:28;;;;;;;62.23;33.90;;;3.10;99.90;;;;;;5044873;28;20217;-59
2022/01/16 07:14:55;;;;;;;62.30;34.17;;;3.10;99.90;;;;;;5045001;28;20669;-59
2022/01/16 07:17:25;;;;;;;60.37;33.33;;;3.10;99.90;;;;;;5062555;28;20217;-59
2022/01/16 07:19:52;;;;;;;59.77;33.50;;;3.20;99.90;;;;;;5060843;28;20194;-58
2022/01/16 07:22:23;;;;;;;63.27;33.97;;;3.20;99.90;;;;;;5045979;28;20257;-60
2022/01/16 07:24:50;;;;;;;64.67;34.27;;;3.20;99.90;;;;;;5063168;28;20213;-59
2022/01/16 07:27:20;;;;;;;62.50;33.60;;;3.20;99.90;;;;;;5062836;28;20186;-61
2022/01/16 07:29:47;;;;;;;62.73;35.13;;;3.20;99.90;;;;;;5050327;28;20692;-59
2022/01/16 07:32:14;;;;;;;64.77;33.77;;;3.20;99.90;;;;;;5063436;28;20198;-58
2022/01/16 07:34:41;;;;;;;67.00;36.03;;;3.20;99.90;;;;;;5048849;28;20234;-61
2022/01/16 07:37:08;;;;;;;66.53;34.70;;;3.20;99.90;;;;;;5066827;28;21409;-59
2022/01/16 07:39:42;;;;;;;69.43;35.13;;;3.20;99.90;;;;;;5085109;28;20558;-59
2022/01/16 07:42:10;;;;;;;69.20;36.73;;;3.20;99.90;;;;;;5063928;28;20210;-59
2022/01/16 07:44:37;;;;;;;66.43;36.93;;;3.20;99.90;;;;;;5060262;28;20205;-59
2022/01/16 07:47:04;;;;;;;64.43;34.27;;;3.30;99.90;;;;;;5064211;28;20202;-58
2022/01/16 07:49:31;;;;;;;71.23;38.23;;;3.30;99.90;;;;;;5063687;28;20208;-59
2022/01/16 07:52:01;;;;;;;70.37;36.80;;;3.40;99.90;;;;;;5060789;28;20202;-59
2022/01/16 07:54:31;;;;;;;74.07;36.90;;;3.30;99.90;;;;;;5066539;28;20222;-59
2022/01/16 07:56:58;;;;;;;68.83;37.33;;;3.30;99.90;;;;;;5052184;28;20259;-59
2022/01/16 07:59:27;;;;;;;76.47;39.03;;;3.30;99.90;;;;;;5060669;28;20206;-59
2022/01/16 08:01:58;;;;;;;76.70;38.53;;;3.40;99.90;;;;;;5063607;28;20190;-59
2022/01/16 08:04:28;;;;;;;71.03;37.33;;;3.40;99.90;;;;;;5060077;28;20554;-59
2022/01/16 08:06:55;;;;;;;74.37;38.80;;;3.40;99.90;;;;;;5065262;28;20305;-59
2022/01/16 08:09:21;;;;;;;74.30;39.57;;;3.40;99.90;;;;;;5083687;28;20198;-59
2022/01/16 08:11:49;;;;;;;75.90;39.43;;;3.40;99.90;;;;;;5082315;28;20668;-59
2022/01/16 08:14:18;;;;;;;79.63;38.73;;;3.40;99.90;;;;;;5048619;28;20372;-59
2022/01/16 08:16:45;;;;;;;79.40;41.83;;;3.40;99.90;;;;;;5068223;28;20292;-59
2022/01/16 08:19:17;;;;;;;74.47;38.97;;;3.50;99.90;;;;;;5047135;28;20808;-59
2022/01/16 08:21:44;;;;;;;74.83;39.57;;;3.50;99.90;;;;;;5061405;28;20249;-60
2022/01/16 08:24:11;;;;;;;72.63;39.47;;;3.50;99.90;;;;;;5049550;28;20589;-60
2022/01/16 08:26:38;;;;;;;80.10;41.97;;;3.60;99.90;;;;;;5065825;28;20194;-59
2022/01/16 08:29:07;;;;;;;64.17;37.57;;;3.50;99.90;;;;;;5067084;28;20202;-59
2022/01/16 08:31:34;;;;;;;75.73;42.07;;;3.60;95.60;;;;;;5063547;28;20198;-59
2022/01/16 08:34:01;;;;;;;75.73;39.97;;;3.50;99.90;;;;;;5063536;28;20257;-59
2022/01/16 08:36:28;;;;;;;81.07;41.80;;;3.60;74.80;;;;;;5063806;28;20288;-60
2022/01/16 08:38:58;;;;;;;74.27;41.53;;;3.60;95.50;;;;;;5051060;28;20225;-59
2022/01/16 08:41:25;;;;;;;74.30;42.00;;;3.60;97.50;;;;;;5049714;28;20724;-59
2022/01/16 08:43:56;;;;;;;79.40;41.73;;;3.60;36.10;;;;;;5065059;28;20653;-58
2022/01/16 08:46:24;;;;;;;81.93;42.50;;;3.60;31.90;;;;;;5074577;28;20202;-59
2022/01/16 08:48:54;;;;;;;75.23;41.67;;;3.70;1.00;;;;;;5066729;28;20214;-59
2022/01/16 08:51:21;;;;;;;72.50;41.73;;;3.70;1.00;;;;;;5064632;28;20198;-59
2022/01/16 08:53:50;;;;;;;77.97;42.37;;;3.80;1.00;;;;;;5064699;28;20267;-59
2022/01/16 08:56:20;;;;;;;72.47;42.60;;;3.90;1.00;;;;;;5059071;28;20627;-59
2022/01/16 08:58:47;;;;;;;68.60;39.57;;;3.80;1.00;;;;;;5078152;28;22725;-59
2022/01/16 09:01:14;;;;;;;73.93;40.20;;;3.90;1.00;;;;;;5081240;28;20195;-59
2022/01/16 09:03:43;;;;;;;68.63;41.00;;;3.80;1.00;;;;;;5054140;28;20206;-59
2022/01/16 09:06:10;;;;;;;69.90;40.10;;;3.90;1.00;;;;;;5066600;28;20261;-59
2022/01/16 09:08:37;;;;;;;72.73;40.17;;;3.90;1.00;;;;;;5086372;28;20249;-59
2022/01/16 09:11:05;;;;;;;69.30;39.97;;;3.90;1.00;;;;;;5053213;28;20275;-61
2022/01/16 09:13:32;;;;;;;71.10;40.40;;;3.90;1.00;;;;;;5064213;28;20251;-59
2022/01/16 09:15:58;;;;;;;70.73;41.80;;;4.00;1.00;;;;;;5063841;28;20237;-59
2022/01/16 09:18:28;;;;;;;71.17;40.83;;;4.00;1.00;;;;;;5061834;28;20222;-60
2022/01/16 09:20:56;;;;;;;68.67;41.73;;;4.00;1.00;;;;;;5055625;28;20295;-59
2022/01/16 09:23:23;;;;;;;72.20;39.93;;;4.00;1.00;;;;;;5086784;28;20202;-59
2022/01/16 09:26:00;;;;;;;63.33;41.07;;;4.10;1.00;;;;;;5088851;28;20190;-59
2022/01/16 09:28:29;;;;;;;71.20;43.27;;;4.10;1.00;;;;;;5065171;28;20198;-59
2022/01/16 09:30:56;;;;;;;69.17;41.00;;;4.10;1.00;;;;;;5085383;28;20252;-60
2022/01/16 09:33:26;;;;;;;66.83;42.87;;;4.10;1.00;;;;;;5080827;28;20316;-60
2022/01/16 09:35:55;;;;;;;74.43;41.77;;;4.20;1.00;;;;;;5076587;28;20194;-61
2022/01/16 09:38:22;;;;;;;71.03;42.50;;;4.20;1.00;;;;;;5060929;28;20229;-59
2022/01/16 09:40:52;;;;;;;67.23;41.27;;;4.30;1.00;;;;;;5045401;28;20294;-59
2022/01/16 09:43:19;;;;;;;67.63;42.00;;;4.40;1.00;;;;;;5061883;28;20597;-59
2022/01/16 09:45:51;;;;;;;65.63;39.67;;;4.50;1.00;;;;;;5061663;28;20190;-59
2022/01/16 09:48:18;;;;;;;68.57;39.97;;;4.50;1.00;;;;;;5064117;28;20320;-58
2022/01/16 09:50:45;;;;;;;66.17;39.40;;;4.60;1.00;;;;;;5059730;28;20225;-59
2022/01/16 09:53:13;;;;;;;66.63;39.57;;;4.50;1.00;;;;;;5045391;28;20844;-60
2022/01/16 09:55:40;;;;;;;65.20;39.27;;;4.50;1.00;;;;;;5082431;28;20318;-59
2022/01/16 09:58:09;;;;;;;73.80;40.20;;;4.50;1.00;;;;;;5076926;28;20358;-59
2022/01/16 10:00:39;;;;;;;64.43;40.90;;;4.50;1.00;;;;;;5058067;28;20678;-60
2022/01/16 10:03:09;;;;;;;68.87;40.13;;;4.50;1.00;;;;;;5081651;28;20190;-60
2022/01/16 10:05:38;;;;;;;64.30;40.23;;;4.60;1.00;;;;;;5057502;28;20740;-59
2022/01/16 10:08:12;;;;;;;71.33;40.83;;;4.60;1.00;;;;;;5086322;28;20229;-60
2022/01/16 10:10:43;;;;;;;64.87;39.73;;;4.60;1.00;;;;;;5080461;28;20240;-60
2022/01/16 10:13:38;;;;;;;71.03;38.60;;;4.60;1.00;;;;;;5087577;28;20277;-60
2022/01/16 10:16:05;;;;;;;59.17;36.23;;;4.70;1.00;;;;;;5046887;28;20264;-60
2022/01/16 10:18:38;;;;;;;59.80;36.60;;;4.70;1.00;;;;;;5045181;28;20214;-60
2022/01/16 10:21:09;;;;;;;63.83;38.73;;;4.70;1.00;;;;;;5046972;28;20341;-60
2022/01/16 10:23:42;;;;;;;57.17;36.77;;;4.80;1.00;;;;;;5081962;28;20213;-60
2022/01/16 10:26:20;;;;;;;58.13;38.30;;;4.80;1.00;;;;;;5062967;28;20198;-61
2022/01/16 10:28:48;;;;;;;53.40;33.93;;;4.80;1.00;;;;;;5049113;28;20204;-60
2022/01/16 10:31:25;;;;;;;59.20;35.40;;;4.80;1.00;;;;;;5061042;28;20754;-59
2022/01/16 10:33:55;;;;;;;57.80;35.77;;;4.90;99.90;;;;;;5048065;28;20330;-58
2022/01/16 10:36:36;;;;;;;62.33;37.30;;;5.00;99.90;;;;;;5077779;28;20260;-60
2022/01/16 10:39:08;;;;;;;53.00;35.83;;;5.00;99.90;;;;;;5062504;28;20252;-59
2022/01/16 10:41:35;;;;;;;48.80;32.93;;;5.10;99.90;;;;;;5064104;28;20287;-57
2022/01/16 10:44:02;;;;;;;48.87;32.13;;;5.20;99.90;;;;;;5029405;28;21063;-58
2022/01/16 10:46:29;;;;;;;47.90;30.60;;;5.30;99.90;;;;;;5062446;28;20615;-59
2022/01/16 10:49:19;;;;;;;48.53;31.83;;;5.40;99.90;;;;;;5065409;28;20778;-59
2022/01/16 10:52:06;;;;;;;46.17;30.10;;;5.50;99.90;;;;;;5048020;28;20246;-59
2022/01/16 10:54:41;;;;;;;55.70;33.07;;;5.50;99.90;;;;;;5062906;28;20202;-59
2022/01/16 10:57:24;;;;;;;47.43;29.97;;;5.50;99.90;;;;;;5061604;28;20191;-59
2022/01/16 11:00:04;;;;;;;48.63;31.07;;;5.60;92.90;;;;;;5048593;28;20218;-59
2022/01/16 11:02:31;;;;;;;46.30;29.37;;;5.50;90.90;;;;;;5044187;28;20191;-57
2022/01/16 11:05:24;;;;;;;54.13;32.07;;;5.50;99.90;;;;;;5084546;28;20567;-58
2022/01/16 11:08:14;;;;;;;44.83;28.73;;;5.60;99.90;;;;;;5079301;28;20252;-59
2022/01/16 11:10:46;;;;;;;45.70;30.50;;;5.50;45.50;;;;;;5047342;28;20198;-60
2022/01/16 11:13:15;;;;;;;45.57;29.30;;;5.60;90.80;;;;;;5058992;28;20630;-59
2022/01/16 11:15:50;;;;;;;43.60;29.20;;;5.70;26.20;;;;;;5043857;28;20201;-59
2022/01/16 11:18:19;;;;;;;43.90;28.80;;;5.70;1.00;;;;;;5046585;28;20575;-60
2022/01/16 11:21:08;;;;;;;42.03;27.50;;;5.70;1.00;;;;;;5065215;28;20241;-60
2022/01/16 11:23:48;;;;;;;42.27;28.30;;;5.60;8.60;;;;;;5046799;28;20298;-58
2022/01/16 11:26:22;;;;;;;45.63;28.73;;;5.50;25.20;;;;;;5084382;28;20274;-60
2022/01/16 11:28:56;;;;;;;48.60;30.10;;;5.50;64.50;;;;;;5045772;28;20221;-59
2022/01/16 11:31:25;;;;;;;45.87;29.73;;;5.50;57.80;;;;;;5060635;28;20194;-57
2022/01/16 11:33:52;;;;;;;42.47;27.93;;;5.50;62.90;;;;;;5058594;28;20233;-57
2022/01/16 11:36:28;;;;;;;45.70;29.47;;;5.50;76.20;;;;;;5046591;28;20221;-57
2022/01/16 11:38:59;;;;;;;45.30;28.73;;;5.50;99.90;;;;;;5081008;28;20330;-58
2022/01/16 11:41:40;;;;;;;40.80;27.57;;;5.50;54.00;;;;;;5061610;28;20198;-59
2022/01/16 11:44:20;;;;;;;45.57;28.83;;;5.40;1.00;;;;;;5081115;28;20178;-60
2022/01/16 11:46:55;;;;;;;43.37;28.80;;;5.50;23.10;;;;;;5064205;28;20293;-60
2022/01/16 11:49:38;;;;;;;40.73;27.07;;;5.50;16.20;;;;;;5063777;28;20190;-57
2022/01/16 11:52:12;;;;;;;47.53;28.90;;;5.50;16.50;;;;;;5063969;28;20655;-58
2022/01/16 11:54:40;;;;;;;41.97;28.47;;;5.50;34.60;;;;;;5077805;28;20272;-58
2022/01/16 11:57:27;;;;;;;44.73;29.03;;;5.50;54.20;;;;;;5082017;28;20186;-58
2022/01/16 12:00:11;;;;;;;43.23;26.53;;;5.50;31.90;;;;;;5066571;28;20225;-60
2022/01/16 12:02:44;;;;;;;41.60;26.37;;;5.50;44.50;;;;;;5080975;28;20728;-58
2022/01/16 12:05:40;;;;;;;47.80;29.27;;;5.40;77.40;;;;;;5067032;28;20716;-58
2022/01/16 12:08:11;;;;;;;41.97;25.90;;;5.50;57.80;;;;;;5062194;28;20302;-57
2022/01/16 12:10:44;;;;;;;44.37;27.67;;;5.50;24.90;;;;;;5080578;28;20226;-57
2022/01/16 12:13:42;;;;;;;44.97;28.53;;;5.60;29.70;;;;;;5059649;28;20269;-58
2022/01/16 12:16:35;;;;;;;50.70;27.47;;;5.70;4.40;;;;;;5041893;28;20210;-60
2022/01/16 12:19:36;;;;;;;41.30;25.30;;;5.60;16.20;;;;;;5061295;28;21599;-60
2022/01/16 12:22:08;;;;;;;41.23;25.30;;;5.70;1.00;;;;;;5062531;28;20210;-60
2022/01/16 12:24:38;;;;;;;43.53;27.27;;;5.60;1.00;;;;;;5060567;28;20224;-60
2022/01/16 12:27:39;;;;;;;38.17;25.00;;;5.70;1.00;;;;;;5076674;28;20355;-59
2022/01/16 12:30:15;;;;;;;43.20;26.87;;;5.70;1.00;;;;;;5061519;28;20198;-58
2022/01/16 12:33:08;;;;;;;39.70;27.50;;;5.80;1.00;;;;;;5061951;28;20221;-59
2022/01/16 12:36:00;;;;;;;43.57;28.20;;;5.80;1.00;;;;;;5068222;28;20191;-59
2022/01/16 12:38:32;;;;;;;41.13;27.00;;;5.70;1.00;;;;;;5073780;28;20275;-60
2022/01/16 12:41:01;;;;;;;42.47;26.43;;;5.80;7.50;;;;;;5073342;28;20190;-59
2022/01/16 12:43:43;;;;;;;43.10;27.93;;;5.70;33.30;;;;;;5057205;28;20957;-60
2022/01/16 12:46:13;;;;;;;42.83;27.50;;;5.80;35.00;;;;;;5079310;28;20236;-59
2022/01/16 12:48:44;;;;;;;42.57;27.07;;;5.70;36.80;;;;;;5071678;28;20202;-57
2022/01/16 12:51:13;;;;;;;41.30;26.13;;;5.70;90.50;;;;;;5077956;28;20218;-59
2022/01/16 12:53:52;;;;;;;41.23;26.97;;;5.70;62.50;;;;;;5062141;28;20194;-60
2022/01/16 12:56:29;;;;;;;38.17;25.53;;;5.70;89.40;;;;;;5057145;28;20273;-59
2022/01/16 12:59:09;;;;;;;41.33;25.83;;;5.70;99.40;;;;;;5079438;28;20294;-59
2022/01/16 13:01:36;;;;;;;44.20;27.77;;;5.70;99.90;;;;;;5063750;28;20198;-59
2022/01/16 13:04:03;;;;;;;43.80;26.23;;;5.70;99.90;;;;;;5067237;28;20198;-59
2022/01/16 13:06:34;;;;;;;43.63;28.33;;;5.70;99.90;;;;;;5046876;28;20247;-59
2022/01/16 13:09:10;;;;;;;47.93;27.87;;;5.60;99.90;;;;;;5066356;28;20195;-57
2022/01/16 13:11:39;;;;;;;44.47;28.60;;;5.70;99.90;;;;;;5068430;28;20206;-57
2022/01/16 13:14:08;;;;;;;46.00;28.53;;;5.60;99.90;;;;;;5082212;28;20301;-57
2022/01/16 13:16:41;;;;;;;48.90;27.67;;;5.60;99.90;;;;;;5079490;28;20226;-57
2022/01/16 13:19:15;;;;;;;45.13;27.37;;;5.60;99.90;;;;;;5063094;28;20254;-58
2022/01/16 13:21:49;;;;;;;46.87;28.43;;;5.60;99.90;;;;;;5059969;28;20748;-58
2022/01/16 13:24:33;;;;;;;46.93;29.03;;;5.60;99.90;;;;;;5082781;28;20194;-59
2022/01/16 13:27:02;;;;;;;43.17;27.23;;;5.60;99.90;;;;;;5063860;28;20375;-60
2022/01/16 13:29:30;;;;;;;44.33;28.47;;;5.60;99.90;;;;;;5044996;28;20207;-59
2022/01/16 13:31:57;;;;;;;46.50;29.37;;;5.60;99.90;;;;;;5044989;28;20202;-59
2022/01/16 13:34:32;;;;;;;48.30;30.17;;;5.60;99.90;;;;;;5082371;28;21202;-58
2022/01/16 13:37:00;;;;;;;49.80;31.93;;;5.60;99.90;;;;;;5065765;28;20233;-58
2022/01/16 13:39:35;;;;;;;53.57;30.47;;;5.60;99.90;;;;;;5066634;28;20224;-57
2022/01/16 13:42:15;;;;;;;53.17;30.87;;;5.60;99.90;;;;;;5054718;28;20198;-59
2022/01/16 13:44:43;;;;;;;48.20;29.13;;;5.60;99.90;;;;;;5068603;28;20288;-60
2022/01/16 13:47:19;;;;;;;50.00;30.83;;;5.60;99.90;;;;;;5039661;28;20206;-59
2022/01/16 13:49:51;;;;;;;51.17;31.20;;;5.60;99.90;;;;;;5082573;28;20225;-59